createdAt,value
2022-10-11T00:00:24.761Z,67.70
2022-10-11T00:03:07.041Z,68.00
2022-10-11T00:05:49.092Z,68.68
2022-10-11T00:08:30.340Z,69.90
2022-10-11T00:11:11.944Z,69.50
2022-10-11T00:13:53.785Z,68.62
2022-10-11T00:16:38.824Z,68.14
2022-10-11T00:19:20.958Z,68.20
2022-10-11T00:22:01.954Z,67.39
2022-10-11T00:24:44.088Z,67.92
2022-10-11T00:27:24.588Z,67.00
2022-10-11T00:30:07.672Z,67.28
2022-10-11T00:32:50.553Z,67.67
2022-10-11T00:35:32.333Z,67.23
2022-10-11T00:38:13.544Z,66.90
2022-10-11T00:40:55.966Z,67.27
2022-10-11T00:43:38.556Z,66.93
2022-10-11T00:46:34.129Z,67.47
2022-10-11T00:49:26.871Z,68.52
2022-10-11T00:52:15.994Z,68.07
2022-10-11T00:54:59.560Z,67.58
2022-10-11T00:57:46.391Z,67.56
2022-10-11T01:00:29.301Z,67.10
2022-10-11T01:03:12.149Z,67.78
2022-10-11T01:05:54.602Z,68.36
2022-10-11T01:08:35.899Z,67.83
2022-10-11T01:11:20.842Z,67.32
2022-10-11T01:14:16.755Z,67.29
2022-10-11T01:17:05.016Z,68.17
2022-10-11T01:20:02.071Z,69.10
2022-10-11T01:23:17.052Z,69.77
2022-10-11T01:26:20.794Z,70.22
2022-10-11T01:29:15.079Z,70.15
2022-10-11T01:32:02.606Z,70.61
2022-10-11T01:34:56.114Z,70.87
2022-10-11T01:37:41.587Z,71.11
2022-10-11T01:40:29.481Z,70.56
2022-10-11T01:43:13.164Z,70.79
2022-10-11T01:45:57.615Z,70.28
2022-10-11T01:48:51.241Z,70.42
2022-10-11T01:51:37.864Z,71.25
2022-10-11T01:55:08.678Z,70.66
2022-10-11T01:58:09.222Z,70.63
2022-10-11T02:00:58.158Z,69.88
2022-10-11T02:03:48.291Z,70.19
2022-10-11T02:06:37.901Z,69.07
2022-10-11T02:09:27.133Z,69.11
2022-10-11T02:12:13.683Z,69.00
2022-10-11T02:14:57.587Z,69.12
2022-10-11T02:17:45.960Z,69.73
2022-10-11T02:20:33.176Z,70.00
2022-10-11T02:23:21.774Z,69.43
2022-10-11T02:26:06.878Z,70.39
2022-10-11T02:28:52.609Z,69.72
2022-10-11T02:31:36.739Z,68.20
2022-10-11T02:34:29.141Z,68.40
2022-10-11T02:37:17.998Z,68.32
2022-10-11T02:40:05.404Z,67.88
2022-10-11T02:42:52.386Z,67.76
2022-10-11T02:45:39.133Z,67.45
2022-10-11T02:48:21.321Z,67.72
2022-10-11T02:51:04.918Z,68.09
2022-10-11T02:53:47.106Z,67.79
2022-10-11T02:56:30.155Z,67.92
2022-10-11T02:59:10.921Z,68.72
2022-10-11T03:01:52.367Z,68.49
2022-10-11T03:04:34.130Z,69.30
2022-10-11T03:07:15.790Z,68.67
2022-10-11T03:09:58.168Z,68.08
2022-10-11T03:12:40.072Z,68.13
2022-10-11T03:15:22.554Z,68.29
2022-10-11T03:18:04.622Z,68.10
2022-10-11T03:20:48.123Z,68.09
2022-10-11T03:23:30.346Z,67.94
2022-10-11T03:26:12.512Z,67.33
2022-10-11T03:28:53.076Z,67.79
2022-10-11T03:31:34.134Z,67.35
2022-10-11T03:34:15.521Z,67.42
2022-10-11T03:36:56.711Z,67.90
2022-10-11T03:39:38.998Z,67.11
2022-10-11T03:42:20.058Z,67.02
2022-10-11T03:45:04.918Z,66.55
2022-10-11T03:47:45.741Z,67.73
2022-10-11T03:50:27.118Z,66.98
2022-10-11T03:53:08.841Z,67.33
2022-10-11T03:55:53.886Z,67.75
2022-10-11T03:58:35.054Z,67.52
2022-10-11T04:01:16.052Z,67.68
2022-10-11T04:03:58.497Z,67.18
2022-10-11T04:06:38.581Z,67.27
2022-10-11T04:09:20.231Z,67.35
2022-10-11T04:12:01.905Z,68.10
2022-10-11T04:14:42.998Z,67.72
2022-10-11T04:17:24.516Z,68.60
2022-10-11T04:20:07.969Z,68.50
2022-10-11T04:22:49.329Z,68.35
2022-10-11T04:25:30.511Z,67.90
2022-10-11T04:28:11.764Z,67.37
2022-10-11T04:30:53.839Z,67.22
2022-10-11T04:33:33.554Z,67.74
2022-10-11T04:36:14.195Z,68.03
2022-10-11T04:38:56.282Z,68.86
2022-10-11T04:41:37.243Z,67.56
2022-10-11T04:44:18.768Z,68.11
2022-10-11T04:46:59.895Z,68.65
2022-10-11T04:49:41.187Z,68.07
2022-10-11T04:52:25.934Z,68.02
2022-10-11T04:55:08.341Z,67.89
2022-10-11T04:57:49.074Z,67.83
2022-10-11T05:00:30.292Z,67.26
2022-10-11T05:03:12.227Z,66.25
2022-10-11T05:05:56.517Z,66.60
2022-10-11T05:08:37.537Z,66.08
2022-10-11T05:11:19.805Z,66.02
2022-10-11T05:14:00.368Z,65.91
2022-10-11T05:16:41.698Z,65.98
2022-10-11T05:19:23.461Z,65.83
2022-10-11T05:22:07.332Z,65.55
2022-10-11T05:24:47.808Z,64.97
2022-10-11T05:27:29.328Z,64.06
2022-10-11T05:30:11.928Z,63.79
2022-10-11T05:33:08.224Z,63.37
2022-10-11T05:35:49.613Z,63.61
2022-10-11T05:38:30.826Z,64.31
2022-10-11T05:41:14.944Z,64.44
2022-10-11T05:43:56.492Z,64.39
2022-10-11T05:46:38.040Z,64.34
2022-10-11T05:49:19.648Z,64.94
2022-10-11T05:52:00.860Z,64.75
2022-10-11T05:54:42.512Z,64.88
2022-10-11T05:57:24.106Z,64.43
2022-10-11T06:00:05.614Z,63.96
2022-10-11T06:02:53.568Z,64.12
2022-10-11T06:05:35.660Z,63.34
2022-10-11T06:08:17.598Z,63.08
2022-10-11T06:10:58.590Z,63.54
2022-10-11T06:13:46.876Z,63.99
2022-10-11T06:16:50.858Z,63.60
2022-10-11T06:19:45.326Z,62.39
2022-10-11T06:22:45.124Z,62.31
2022-10-11T06:25:40.055Z,62.63
2022-10-11T06:28:46.724Z,61.94
2022-10-11T06:31:56.764Z,61.31
2022-10-11T06:34:52.067Z,60.74
2022-10-11T06:37:51.465Z,60.35
2022-10-11T06:40:56.007Z,60.08
2022-10-11T06:43:50.650Z,58.10
2022-10-11T06:46:46.989Z,58.49
2022-10-11T06:49:41.908Z,58.26
2022-10-11T06:52:40.251Z,59.58
2022-10-11T06:55:38.284Z,58.64
2022-10-11T06:58:39.139Z,58.65
2022-10-11T07:01:36.014Z,57.61
2022-10-11T07:04:35.115Z,45.61
2022-10-11T07:07:38.452Z,43.32
2022-10-11T07:10:39.044Z,30.75
2022-10-11T07:13:33.988Z,30.49
2022-10-11T07:16:31.725Z,32.14
2022-10-11T07:19:36.023Z,25.85
2022-10-11T07:22:37.085Z,30.78
2022-10-11T07:25:34.386Z,33.29
2022-10-11T07:28:32.673Z,38.78
2022-10-11T07:32:11.363Z,38.21
2022-10-11T07:35:11.743Z,42.50
2022-10-11T07:38:11.432Z,45.28
2022-10-11T07:41:07.385Z,48.51
2022-10-11T07:44:07.008Z,49.59
2022-10-11T07:47:08.964Z,42.54
2022-10-11T07:50:11.429Z,34.48
2022-10-11T07:53:10.013Z,27.17
2022-10-11T07:56:09.457Z,23.05
2022-10-11T07:59:12.193Z,19.63
2022-10-11T08:01:51.650Z,19.80
2022-10-11T08:04:58.522Z,21.81
2022-10-11T08:08:06.288Z,19.13
2022-10-11T08:11:06.620Z,18.40
2022-10-11T08:14:08.871Z,19.15
2022-10-11T08:17:05.997Z,20.20
2022-10-11T08:20:15.722Z,20.37
2022-10-11T08:23:23.037Z,21.82
2022-10-11T08:26:17.936Z,22.08
2022-10-11T08:29:22.098Z,22.73
2022-10-11T08:32:16.415Z,23.04
2022-10-11T08:35:30.094Z,28.77
2022-10-11T08:38:31.083Z,26.58
2022-10-11T08:41:49.806Z,23.56
2022-10-11T08:45:10.012Z,31.55
2022-10-11T08:48:15.765Z,31.60
2022-10-11T08:51:29.361Z,26.28
2022-10-11T08:54:33.328Z,21.70
2022-10-11T08:57:41.041Z,23.81
2022-10-11T09:00:38.253Z,25.25
2022-10-11T09:03:40.490Z,24.10
2022-10-11T09:06:35.108Z,23.46
2022-10-11T09:09:37.953Z,24.26
2022-10-11T09:12:32.385Z,23.00
2022-10-11T09:15:21.766Z,23.13
2022-10-11T09:18:39.333Z,22.91
2022-10-11T09:21:31.808Z,24.67
2022-10-11T09:24:29.500Z,25.25
2022-10-11T09:27:14.005Z,26.14
2022-10-11T09:30:04.329Z,26.96
2022-10-11T09:32:49.158Z,25.57
2022-10-11T09:35:20.259Z,22.07
2022-10-11T09:37:57.088Z,23.02
2022-10-11T09:40:44.476Z,23.61
2022-10-11T09:43:13.454Z,22.01
2022-10-11T09:45:49.155Z,25.81
2022-10-11T09:48:24.316Z,26.12
2022-10-11T09:51:04.174Z,26.83
2022-10-11T09:53:53.941Z,29.53
2022-10-11T09:56:22.756Z,25.82
2022-10-11T09:58:51.317Z,22.83
2022-10-11T10:01:30.036Z,22.98
2022-10-11T10:04:09.398Z,23.22
2022-10-11T10:06:38.080Z,25.85
2022-10-11T10:09:25.621Z,27.49
2022-10-11T10:11:55.144Z,25.41
2022-10-11T10:14:26.459Z,26.36
2022-10-11T10:17:02.251Z,24.77
2022-10-11T10:19:44.663Z,25.28
2022-10-11T10:22:19.747Z,25.66
2022-10-11T10:24:50.113Z,25.53
2022-10-11T10:27:22.318Z,26.80
2022-10-11T10:30:04.598Z,26.92
2022-10-11T10:32:43.789Z,25.50
2022-10-11T10:35:27.721Z,25.53
2022-10-11T10:38:05.179Z,24.80
2022-10-11T10:40:40.273Z,26.35
2022-10-11T10:43:15.686Z,25.32
2022-10-11T10:45:58.384Z,24.45
2022-10-11T10:49:11.737Z,25.97
2022-10-11T10:51:40.849Z,29.61
2022-10-11T10:54:20.569Z,27.49
2022-10-11T10:56:54.057Z,28.07
2022-10-11T10:59:40.575Z,25.21
2022-10-11T11:02:38.883Z,24.64
2022-10-11T11:05:16.389Z,24.65
2022-10-11T11:07:51.434Z,28.64
2022-10-11T11:10:22.839Z,29.62
2022-10-11T11:12:57.334Z,26.21
2022-10-11T11:15:37.624Z,25.71
2022-10-11T11:18:22.202Z,25.40
2022-10-11T11:21:03.929Z,26.40
2022-10-11T11:23:41.824Z,26.94
2022-10-11T11:26:17.027Z,29.17
2022-10-11T11:30:57.563Z,30.32
2022-10-11T11:33:36.398Z,30.22
2022-10-11T11:36:11.053Z,30.44
2022-10-11T11:38:47.072Z,26.93
2022-10-11T11:41:20.715Z,27.24
2022-10-11T11:44:03.675Z,28.24
2022-10-11T11:46:39.726Z,28.00
2022-10-11T11:49:14.856Z,28.76
2022-10-11T11:51:45.514Z,30.33
2022-10-11T11:54:28.743Z,32.79
2022-10-11T11:57:04.351Z,33.71
2022-10-11T11:59:38.701Z,34.49
2022-10-11T12:02:35.128Z,32.86
2022-10-11T12:05:03.465Z,34.02
2022-10-11T12:07:32.177Z,32.03
2022-10-11T12:10:16.643Z,32.80
2022-10-11T12:12:45.127Z,32.73
2022-10-11T12:15:26.144Z,30.87
2022-10-11T12:18:17.500Z,30.88
2022-10-11T12:20:46.271Z,31.15
2022-10-11T12:23:43.937Z,30.66
2022-10-11T12:26:35.501Z,31.03
2022-10-11T12:29:25.858Z,31.37
2022-10-11T12:32:13.621Z,32.89
2022-10-11T12:34:44.422Z,31.43
2022-10-11T12:37:51.610Z,32.73
2022-10-11T12:40:41.745Z,30.87
2022-10-11T12:43:12.427Z,31.17
2022-10-11T12:45:41.597Z,32.38
2022-10-11T12:48:34.972Z,31.36
2022-10-11T12:51:27.028Z,31.81
2022-10-11T12:54:26.021Z,32.62
2022-10-11T12:57:17.284Z,31.96
2022-10-11T12:59:46.938Z,32.58
2022-10-11T13:02:28.967Z,30.54
2022-10-11T13:05:09.539Z,29.98
2022-10-11T13:07:43.315Z,32.09
2022-10-11T13:10:15.913Z,30.37
2022-10-11T13:12:48.123Z,31.77
2022-10-11T13:15:20.241Z,31.93
2022-10-11T13:17:51.781Z,32.34
2022-10-11T13:20:22.560Z,32.58
2022-10-11T13:22:54.156Z,32.04
2022-10-11T13:25:24.869Z,31.41
2022-10-11T13:27:55.412Z,31.84
2022-10-11T13:33:23.897Z,31.84
2022-10-11T13:35:54.021Z,33.83
2022-10-11T13:38:29.751Z,33.15
2022-10-11T13:40:59.716Z,34.63
2022-10-11T13:43:30.095Z,34.74
2022-10-11T13:46:00.435Z,35.00
2022-10-11T13:48:31.973Z,36.12
2022-10-11T13:51:08.028Z,36.34
2022-10-11T13:53:37.599Z,36.14
2022-10-11T13:56:09.561Z,35.72
2022-10-11T13:58:40.560Z,35.82
2022-10-11T14:01:19.327Z,36.13
2022-10-11T14:03:50.261Z,35.51
2022-10-11T14:06:18.496Z,35.63
2022-10-11T14:08:51.018Z,35.05
2022-10-11T14:11:34.671Z,37.06
2022-10-11T14:14:30.117Z,37.33
2022-10-11T14:17:05.005Z,36.28
2022-10-11T14:19:33.516Z,35.92
2022-10-11T14:22:01.803Z,36.21
2022-10-11T14:24:31.287Z,34.37
2022-10-11T14:27:00.023Z,32.96
2022-10-11T14:29:30.097Z,32.09
2022-10-11T14:32:03.566Z,32.44
2022-10-11T14:34:33.183Z,33.33
2022-10-11T14:37:01.467Z,33.20
2022-10-11T14:39:33.322Z,33.45
2022-10-11T14:42:01.819Z,33.79
2022-10-11T14:48:50.192Z,33.42
2022-10-11T14:51:15.669Z,34.53
2022-10-11T14:53:46.433Z,35.64
2022-10-11T14:56:21.076Z,37.70
2022-10-11T14:58:49.920Z,38.36
2022-10-11T15:01:18.970Z,38.83
2022-10-11T15:03:47.149Z,39.08
2022-10-11T15:06:19.942Z,39.40
2022-10-11T15:08:48.555Z,40.77
2022-10-11T15:11:20.712Z,41.19
2022-10-11T15:13:48.856Z,41.74
2022-10-11T15:16:20.236Z,42.49
2022-10-11T15:18:51.059Z,42.54
2022-10-11T15:21:21.351Z,43.92
2022-10-11T15:23:50.891Z,43.11
2022-10-11T15:26:22.122Z,42.50
2022-10-11T15:28:51.357Z,42.55
2022-10-11T15:31:19.972Z,42.37
2022-10-11T15:33:48.568Z,43.02
2022-10-11T15:36:19.459Z,42.64
2022-10-11T15:38:48.774Z,42.11
2022-10-11T15:41:20.330Z,42.21
2022-10-11T15:43:50.200Z,43.03
2022-10-11T15:46:20.828Z,43.26
2022-10-11T15:48:51.243Z,43.44
2022-10-11T15:51:19.991Z,43.65
2022-10-11T15:53:48.279Z,44.32
2022-10-11T15:56:19.002Z,45.11
2022-10-11T15:58:48.694Z,45.87
2022-10-11T16:01:18.846Z,47.38
2022-10-11T16:03:48.175Z,48.49
2022-10-11T16:06:16.682Z,50.46
2022-10-11T16:08:45.149Z,51.51
2022-10-11T16:11:13.873Z,51.77
2022-10-11T16:13:42.353Z,52.59
2022-10-11T16:16:12.720Z,53.33
2022-10-11T16:18:41.149Z,53.49
2022-10-11T16:21:11.795Z,53.78
2022-10-11T16:23:40.099Z,53.95
2022-10-11T16:26:13.374Z,54.95
2022-10-11T16:28:42.687Z,55.48
2022-10-11T16:31:16.770Z,55.59
2022-10-11T16:33:46.703Z,56.06
2022-10-11T16:36:34.782Z,57.10
2022-10-11T16:39:05.684Z,56.73
2022-10-11T16:41:34.273Z,57.24
2022-10-11T16:44:02.445Z,57.44
2022-10-11T16:46:33.452Z,58.01
2022-10-11T16:49:01.619Z,58.69
2022-10-11T16:51:29.687Z,58.32
2022-10-11T16:53:57.917Z,58.44
2022-10-11T16:56:26.321Z,58.97
2022-10-11T16:58:55.396Z,59.14
2022-10-11T17:01:24.290Z,59.42
2022-10-11T17:03:54.211Z,59.64
2022-10-11T17:06:22.616Z,59.49
2022-10-11T17:08:50.784Z,60.14
2022-10-11T17:11:19.357Z,60.34
2022-10-11T17:13:47.796Z,60.11
2022-10-11T17:16:16.322Z,60.58
2022-10-11T17:18:44.618Z,60.54
2022-10-11T17:21:16.635Z,60.10
2022-10-11T17:23:44.695Z,59.61
2022-10-11T17:26:17.278Z,59.59
2022-10-11T17:28:45.704Z,60.17
2022-10-11T17:31:14.289Z,60.71
2022-10-11T17:33:42.411Z,60.77
2022-10-11T17:36:27.898Z,61.13
2022-10-11T17:38:56.376Z,60.76
2022-10-11T17:41:29.420Z,60.80
2022-10-11T17:44:01.121Z,61.23
2022-10-11T17:46:32.671Z,61.32
2022-10-11T17:49:02.045Z,61.38
2022-10-11T17:51:32.713Z,62.39
2022-10-11T17:54:01.063Z,62.25
2022-10-11T17:56:33.828Z,62.03
2022-10-11T17:59:04.928Z,61.76
2022-10-11T18:01:33.160Z,61.97
2022-10-11T18:04:03.588Z,61.67
2022-10-11T18:06:35.147Z,62.98
2022-10-11T18:09:04.629Z,62.96
2022-10-11T18:11:33.104Z,63.30
2022-10-11T18:14:01.753Z,63.00
2022-10-11T18:16:31.721Z,62.52
2022-10-11T18:19:00.345Z,62.48
2022-10-11T18:21:34.348Z,62.54
2022-10-11T18:24:07.865Z,62.56
2022-10-11T18:26:36.035Z,62.52
2022-10-11T18:29:05.375Z,62.84
2022-10-11T18:31:35.300Z,62.40
2022-10-11T18:34:04.743Z,62.05
2022-10-11T18:36:34.155Z,61.68
2022-10-11T18:39:06.520Z,61.13
2022-10-11T18:41:35.659Z,62.75
2022-10-11T18:44:06.823Z,63.92
2022-10-11T18:46:35.707Z,63.20
2022-10-11T18:49:04.607Z,64.03
2022-10-11T18:51:34.598Z,62.97
2022-10-11T18:54:03.366Z,62.87
2022-10-11T18:56:34.676Z,62.64
2022-10-11T18:59:02.934Z,62.35
2022-10-11T19:01:33.982Z,62.69
2022-10-11T19:04:04.384Z,62.64
2022-10-11T19:06:34.257Z,62.80
2022-10-11T19:09:04.920Z,63.13
2022-10-11T19:11:34.624Z,63.44
2022-10-11T19:14:06.433Z,63.20
2022-10-11T19:16:37.601Z,62.96
2022-10-11T19:19:06.836Z,62.22
2022-10-11T19:21:35.195Z,63.00
2022-10-11T19:24:03.380Z,63.26
2022-10-11T19:26:34.894Z,63.88
2022-10-11T19:29:06.079Z,63.40
2022-10-11T19:31:36.257Z,63.78
2022-10-11T19:34:05.021Z,63.77
2022-10-11T19:36:36.637Z,63.62
2022-10-11T19:39:06.711Z,63.48
2022-10-11T19:41:36.469Z,63.99
2022-10-11T19:44:04.997Z,64.29
2022-10-11T19:49:24.861Z,63.56
2022-10-11T19:51:53.633Z,63.91
2022-10-11T19:54:21.801Z,64.87
2022-10-11T19:56:51.363Z,64.42
2022-10-11T19:59:19.698Z,64.25
2022-10-11T20:01:52.354Z,64.31
2022-10-11T20:07:11.180Z,65.34
2022-10-11T20:09:39.593Z,65.01
2022-10-11T20:12:09.864Z,64.62
2022-10-11T20:14:37.990Z,64.26
2022-10-11T20:17:06.001Z,64.05
2022-10-11T20:19:34.167Z,63.91
2022-10-11T20:22:02.965Z,64.14
2022-10-11T20:24:33.622Z,64.89
2022-10-11T20:27:03.018Z,64.67
2022-10-11T20:29:33.162Z,65.04
2022-10-11T20:32:02.012Z,63.99
2022-10-11T20:34:31.167Z,64.08
2022-10-11T20:36:59.924Z,64.40
2022-10-11T20:39:29.269Z,64.45
2022-10-11T20:41:57.602Z,64.61
2022-10-11T20:44:25.882Z,64.73
2022-10-11T20:46:56.191Z,64.33
2022-10-11T20:49:25.577Z,65.10
2022-10-11T20:51:53.616Z,65.48
2022-10-11T20:54:21.760Z,65.85
2022-10-11T20:56:49.927Z,64.70
2022-10-11T20:59:17.966Z,64.72
2022-10-11T21:01:46.318Z,64.26
2022-10-11T21:04:19.592Z,65.21
2022-10-11T21:06:48.461Z,63.86
2022-10-11T21:09:17.488Z,64.09
2022-10-11T21:11:46.062Z,63.70
2022-10-11T21:14:14.768Z,64.35
2022-10-11T21:16:43.463Z,64.31
2022-10-11T21:19:14.888Z,64.84
2022-10-11T21:21:49.720Z,64.59
2022-10-11T21:24:20.832Z,64.28
2022-10-11T21:26:49.130Z,64.58
2022-10-11T21:29:17.621Z,63.99
2022-10-11T21:31:45.917Z,64.84
2022-10-11T21:34:14.226Z,65.32
2022-10-11T21:36:42.607Z,66.04
2022-10-11T21:39:12.031Z,66.17
2022-10-11T21:41:42.269Z,65.18
2022-10-11T21:44:10.785Z,64.90
2022-10-11T21:49:26.947Z,65.55
2022-10-11T21:51:55.473Z,66.62
2022-10-11T21:54:25.108Z,66.32
2022-10-11T21:56:53.225Z,65.68
2022-10-11T21:59:22.707Z,66.03
2022-10-11T22:01:50.889Z,66.56
2022-10-11T22:04:19.068Z,65.54
2022-10-11T22:06:47.172Z,65.33
2022-10-11T22:09:15.477Z,64.97
2022-10-11T22:11:45.223Z,64.62
2022-10-11T22:14:13.747Z,64.63
2022-10-11T22:16:41.793Z,64.33
2022-10-11T22:19:09.826Z,65.88
2022-10-11T22:21:44.030Z,66.22
2022-10-11T22:24:13.038Z,65.74
2022-10-11T22:26:41.287Z,65.76
2022-10-11T22:29:10.672Z,65.68
2022-10-11T22:31:39.435Z,66.09
2022-10-11T22:34:07.888Z,65.89
2022-10-11T22:36:36.310Z,65.94
2022-10-11T22:39:07.866Z,65.69
2022-10-11T22:41:36.496Z,66.25
2022-10-11T22:44:05.648Z,66.48
2022-10-11T22:46:35.196Z,66.09
2022-10-11T22:49:03.205Z,66.51
2022-10-11T22:51:32.914Z,66.27
2022-10-11T22:54:01.481Z,66.04
2022-10-11T22:56:30.040Z,66.80
2022-10-11T22:59:00.092Z,65.77
2022-10-11T23:01:28.647Z,65.66
2022-10-11T23:03:58.091Z,65.97
2022-10-11T23:06:26.460Z,66.52
2022-10-11T23:08:54.468Z,66.65
2022-10-11T23:11:22.607Z,66.86
2022-10-11T23:13:51.173Z,66.63
2022-10-11T23:16:19.217Z,66.56
2022-10-11T23:18:47.237Z,65.87
2022-10-11T23:21:17.007Z,65.34
2022-10-11T23:23:45.038Z,66.07
2022-10-11T23:26:14.529Z,67.35
2022-10-11T23:28:43.743Z,67.11
2022-10-11T23:31:13.695Z,67.07
2022-10-11T23:33:41.793Z,66.53
2022-10-11T23:36:16.499Z,67.17
2022-10-11T23:38:45.147Z,67.82
2022-10-11T23:41:13.494Z,67.61
2022-10-11T23:43:41.792Z,67.01
2022-10-11T23:46:09.781Z,67.95
2022-10-11T23:48:38.053Z,68.33
2022-10-11T23:51:06.653Z,67.96
2022-10-11T23:53:36.431Z,66.83
2022-10-11T23:56:04.868Z,67.08
2022-10-11T23:58:33.382Z,67.18
